Time;durP1;ratioP1;P1;durP2;ratioP2;P2;SDS_P1;SDS_P2;PMS_P1;PMS_P2;Temp;Humidity;BMP_temperature;BMP_pressure;BME280_temperature;BME280_humidity;BME280_pressure;Samples;Min_cycle;Max_cycle;Signal;HPM_P1;HPM_P2
2022/01/05 00:02:21;;;;;;;10.48;2.28;;;;;;;2.45;97.33;99997.97;4911746;29;20388;-68
2022/01/05 00:04:47;;;;;;;7.47;1.85;;;;;;;2.59;97.43;100021.03;4909487;29;20036;-68
2022/01/05 00:07:12;;;;;;;8.63;1.98;;;;;;;2.58;97.24;100018.47;4910462;29;20044;-69
2022/01/05 00:09:38;;;;;;;5.63;1.95;;;;;;;2.51;96.95;100018.81;4910319;29;20043;-69
2022/01/05 00:12:03;;;;;;;6.50;1.85;;;;;;;2.50;96.30;100016.28;4927684;29;20027;-69
2022/01/05 00:14:29;;;;;;;9.70;2.30;;;;;;;2.51;96.22;100007.38;4927966;29;20043;-69
2022/01/05 00:16:54;;;;;;;13.90;2.53;;;;;;;2.57;95.52;100014.97;4925800;29;20370;-69
2022/01/05 00:19:19;;;;;;;8.15;1.65;;;;;;;2.52;94.59;100022.31;4925451;29;20063;-69
2022/01/05 00:21:45;;;;;;;5.15;1.88;;;;;;;2.53;94.42;100011.66;4923243;29;20036;-69
2022/01/05 00:24:10;;;;;;;7.18;1.70;;;;;;;2.44;94.00;100019.28;4906979;29;20052;-69
2022/01/05 00:26:36;;;;;;;3.65;1.20;;;;;;;2.30;94.66;100007.66;4928930;29;20098;-69
2022/01/05 00:29:02;;;;;;;10.65;1.90;;;;;;;2.36;94.87;100019.72;4934588;29;20109;-68
2022/01/05 00:31:27;;;;;;;5.53;1.77;;;;;;;2.27;94.59;100002.53;4910935;29;20031;-69
2022/01/05 00:33:53;;;;;;;9.18;1.42;;;;;;;2.30;94.56;100015.59;4925688;29;20035;-69
2022/01/05 00:36:19;;;;;;;12.27;1.80;;;;;;;2.17;93.86;100015.44;4911004;29;20885;-69
2022/01/05 00:38:45;;;;;;;8.88;1.95;;;;;;;2.17;94.21;100014.59;4900972;29;20604;-69
2022/01/05 00:41:10;;;;;;;10.15;1.75;;;;;;;2.14;94.27;100031.50;4930400;29;20145;-69
2022/01/05 00:43:36;;;;;;;13.32;1.92;;;;;;;2.17;93.72;100033.97;4913410;29;20034;-68
2022/01/05 00:46:01;;;;;;;10.25;1.60;;;;;;;2.19;93.32;100024.16;4934805;29;20027;-68
2022/01/05 00:48:29;;;;;;;13.75;2.00;;;;;;;2.29;92.63;100024.47;4914200;29;20039;-69
2022/01/05 00:50:55;;;;;;;6.75;1.73;;;;;;;2.28;92.97;100037.81;4932196;29;20054;-69
2022/01/05 00:53:20;;;;;;;3.70;1.33;;;;;;;2.40;92.19;100040.63;4913454;29;20404;-68
2022/01/05 00:55:46;;;;;;;11.23;2.67;;;;;;;2.25;91.95;100030.91;4931216;29;20107;-68
2022/01/05 00:58:11;;;;;;;9.23;1.73;;;;;;;2.25;92.17;100042.34;4928923;29;20032;-68
2022/01/05 01:00:36;;;;;;;5.35;1.40;;;;;;;2.31;91.76;100035.84;4930315;29;20043;-68
2022/01/05 01:03:02;;;;;;;6.32;1.60;;;;;;;2.33;90.65;100043.72;4927843;29;20102;-68
2022/01/05 01:05:27;;;;;;;5.85;2.10;;;;;;;2.25;90.85;100041.50;4932830;29;20119;-68
2022/01/05 01:07:52;;;;;;;12.63;2.30;;;;;;;2.22;90.38;100039.88;4933970;29;20155;-69
2022/01/05 01:10:17;;;;;;;14.27;2.40;;;;;;;2.20;90.91;100046.22;4930777;29;20043;-69
2022/01/05 01:12:43;;;;;;;7.68;1.60;;;;;;;2.22;91.20;100049.63;4927467;29;20172;-68
2022/01/05 01:15:11;;;;;;;8.90;1.35;;;;;;;2.18;91.33;100046.28;4927622;29;20074;-68
2022/01/05 01:17:36;;;;;;;11.40;2.75;;;;;;;2.18;91.35;100050.75;4927071;29;20053;-68
2022/01/05 01:20:03;;;;;;;6.75;1.88;;;;;;;2.05;91.21;100051.41;4931865;29;20384;-69
2022/01/05 01:22:30;;;;;;;11.40;2.58;;;;;;;2.04;91.84;100057.63;4912119;29;20158;-69
2022/01/05 01:24:55;;;;;;;8.73;2.50;;;;;;;1.99;92.20;100049.06;4914723;29;20059;-70
2022/01/05 01:27:21;;;;;;;9.35;2.50;;;;;;;2.01;92.25;100056.97;4930567;29;20035;-69
2022/01/05 01:29:46;;;;;;;5.38;1.85;;;;;;;1.87;92.29;100055.06;4914762;29;20028;-69
2022/01/05 01:32:11;;;;;;;7.88;1.80;;;;;;;1.89;92.67;100058.47;4931325;29;20024;-69
2022/01/05 01:34:37;;;;;;;8.68;1.88;;;;;;;1.90;92.33;100062.84;4913325;29;20035;-70
2022/01/05 01:37:02;;;;;;;5.82;1.83;;;;;;;1.72;93.22;100044.34;4928405;29;20051;-68
2022/01/05 01:39:28;;;;;;;9.05;1.77;;;;;;;1.77;93.64;100052.06;4921849;29;20837;-69
2022/01/05 01:41:53;;;;;;;9.63;2.58;;;;;;;1.67;94.03;100046.41;4927358;29;20043;-69
2022/01/05 01:44:18;;;;;;;6.18;2.00;;;;;;;1.68;93.86;100057.84;4930500;29;20365;-69
2022/01/05 01:46:44;;;;;;;6.95;2.05;;;;;;;1.59;94.27;100056.53;4927323;29;20146;-70
2022/01/05 01:49:09;;;;;;;7.25;2.13;;;;;;;1.57;94.04;100046.03;4917670;29;20041;-69
2022/01/05 01:51:34;;;;;;;15.45;3.72;;;;;;;1.51;94.04;100051.66;4929248;29;20507;-69
2022/01/05 01:54:01;;;;;;;6.65;2.33;;;;;;;1.75;93.52;100064.50;4911686;29;20074;-69
2022/01/05 01:56:26;;;;;;;13.02;2.15;;;;;;;1.64;94.00;100070.38;4910047;29;20062;-69
2022/01/05 01:58:52;;;;;;;15.82;2.58;;;;;;;1.68;93.24;100069.28;4912790;29;20573;-70
2022/01/05 02:01:18;;;;;;;15.30;3.00;;;;;;;1.66;93.21;100073.81;4934408;29;20053;-69
2022/01/05 02:03:44;;;;;;;8.88;2.60;;;;;;;1.92;91.95;100069.75;4906836;29;20031;-69
2022/01/05 02:06:09;;;;;;;6.13;2.10;;;;;;;1.80;92.14;100051.91;4915000;29;20400;-68
2022/01/05 02:08:35;;;;;;;5.65;2.08;;;;;;;1.69;93.53;100076.28;4913889;29;20047;-69
2022/01/05 02:11:01;;;;;;;7.95;2.47;;;;;;;1.66;93.11;100076.44;4903791;29;20036;-68
2022/01/05 02:13:27;;;;;;;10.38;2.60;;;;;;;1.69;92.80;100071.00;4911102;29;20070;-68
2022/01/05 02:15:52;;;;;;;12.07;3.10;;;;;;;1.60;92.85;100072.31;4899132;29;20035;-68
2022/01/05 02:20:49;;;;;;;12.10;2.70;;;;;;;1.47;93.12;100071.25;4908284;29;20036;-69
2022/01/05 02:23:15;;;;;;;10.00;2.63;;;;;;;1.46;93.20;100066.91;4911942;29;20106;-69
2022/01/05 02:25:40;;;;;;;10.50;2.22;;;;;;;1.46;93.58;100074.84;4899713;29;20090;-69
2022/01/05 02:28:06;;;;;;;3.15;1.50;;;;;;;1.40;93.48;100078.69;4932308;29;20396;-68
2022/01/05 02:30:31;;;;;;;11.38;2.22;;;;;;;1.22;93.86;100063.72;4910116;29;20156;-68
2022/01/05 02:32:57;;;;;;;7.35;2.00;;;;;;;1.32;92.81;100062.34;4919843;29;20074;-69
2022/01/05 02:35:23;;;;;;;12.23;2.58;;;;;;;1.35;92.25;100073.59;4909971;29;20469;-70
2022/01/05 02:37:51;;;;;;;7.78;2.20;;;;;;;1.46;92.20;100073.03;4918158;29;20023;-70
2022/01/05 02:40:19;;;;;;;14.07;2.47;;;;;;;1.37;92.71;100091.19;4905165;29;20043;-70
2022/01/05 02:42:45;;;;;;;14.60;3.05;;;;;;;1.33;92.69;100093.97;4913761;29;20066;-69
2022/01/05 02:45:11;;;;;;;8.75;2.60;;;;;;;1.28;93.18;100096.03;4915787;29;20054;-68
2022/01/05 02:47:37;;;;;;;2.78;1.70;;;;;;;1.26;92.80;100081.16;4913622;29;20667;-69
2022/01/05 02:50:04;;;;;;;12.57;2.42;;;;;;;1.36;92.38;100093.00;4932774;29;20027;-70
2022/01/05 02:52:30;;;;;;;9.10;2.17;;;;;;;1.26;93.15;100092.59;4890772;29;20038;-69
2022/01/05 02:54:55;;;;;;;6.13;1.75;;;;;;;1.25;92.65;100090.91;4933397;29;20039;-69
2022/01/05 02:57:20;;;;;;;17.23;2.38;;;;;;;1.31;92.52;100102.94;4925540;29;20440;-69
2022/01/05 02:59:45;;;;;;;8.63;2.63;;;;;;;1.31;92.57;100097.66;4926707;29;20055;-69
2022/01/05 03:02:11;;;;;;;5.03;1.85;;;;;;;1.13;93.41;100100.31;4925378;29;20034;-69
2022/01/05 03:04:36;;;;;;;10.77;2.25;;;;;;;1.20;93.35;100098.19;4930062;29;20095;-69
2022/01/05 03:07:02;;;;;;;12.20;3.08;;;;;;;1.17;92.75;100104.50;4911582;29;20032;-70
2022/01/05 03:09:27;;;;;;;10.45;2.22;;;;;;;1.33;91.74;100109.00;4924936;29;20110;-70
2022/01/05 03:11:52;;;;;;;13.60;2.22;;;;;;;1.20;91.82;100106.13;4929696;29;20019;-71
2022/01/05 03:14:19;;;;;;;8.23;2.15;;;;;;;1.29;92.14;100107.44;4928215;29;20044;-69
2022/01/05 03:16:44;;;;;;;9.50;2.80;;;;;;;1.28;91.89;100122.47;4911311;29;20031;-69
2022/01/05 03:19:09;;;;;;;12.98;1.80;;;;;;;1.20;92.14;100125.47;4926393;29;20031;-69
2022/01/05 03:21:35;;;;;;;13.43;2.65;;;;;;;1.27;92.11;100127.84;4931944;29;20032;-70
2022/01/05 03:24:00;;;;;;;14.73;2.70;;;;;;;1.19;91.91;100118.47;4911918;29;20051;-69
2022/01/05 03:26:25;;;;;;;11.32;2.20;;;;;;;1.23;91.78;100116.56;4898491;29;20130;-69
2022/01/05 03:28:51;;;;;;;9.93;2.03;;;;;;;1.36;91.44;100127.38;4928617;29;20028;-69
2022/01/05 03:31:16;;;;;;;6.95;2.35;;;;;;;1.24;92.01;100131.50;4918021;29;20028;-69
2022/01/05 03:33:42;;;;;;;17.75;3.03;;;;;;;1.30;90.89;100136.50;4927690;29;20038;-70
2022/01/05 03:36:07;;;;;;;10.23;2.25;;;;;;;1.26;91.08;100137.56;4917383;29;20040;-69
2022/01/05 03:38:32;;;;;;;8.00;1.90;;;;;;;1.21;90.85;100131.66;4914918;29;20075;-69
2022/01/05 03:40:58;;;;;;;10.70;2.17;;;;;;;1.23;91.21;100135.06;4910384;29;20035;-69
2022/01/05 03:43:23;;;;;;;17.85;2.90;;;;;;;1.40;90.33;100142.16;4929974;29;20040;-72
2022/01/05 03:45:50;;;;;;;17.60;2.60;;;;;;;1.34;90.03;100137.19;4927951;29;20029;-70
2022/01/05 03:48:18;;;;;;;10.50;1.95;;;;;;;1.40;90.20;100136.88;4927177;29;20075;-69
2022/01/05 03:50:44;;;;;;;9.88;2.03;;;;;;;1.39;90.55;100145.75;4924685;29;20039;-70
2022/01/05 03:53:10;;;;;;;8.90;2.13;;;;;;;1.46;89.43;100143.63;4928693;29;20036;-70
2022/01/05 03:55:36;;;;;;;13.52;2.30;;;;;;;1.41;89.90;100127.13;4909678;29;20087;-69
2022/01/05 03:58:02;;;;;;;11.18;2.25;;;;;;;1.43;89.31;100147.31;4895311;29;20096;-69
2022/01/05 04:00:29;;;;;;;10.80;2.30;;;;;;;1.52;88.82;100142.44;4913648;29;20503;-69
2022/01/05 04:02:56;;;;;;;15.95;2.80;;;;;;;1.45;88.60;100148.09;4898102;29;20034;-69
2022/01/05 04:05:21;;;;;;;12.43;2.75;;;;;;;1.50;88.86;100156.63;4900828;29;20095;-69
2022/01/05 04:07:47;;;;;;;8.48;1.92;;;;;;;1.41;88.56;100157.09;4931553;29;20567;-69
2022/01/05 04:10:12;;;;;;;19.80;2.53;;;;;;;1.50;88.33;100156.63;4928612;29;20043;-70
2022/01/05 04:12:37;;;;;;;13.63;2.95;;;;;;;1.47;87.83;100158.56;4927459;29;20023;-70
2022/01/05 04:15:03;;;;;;;16.13;2.75;;;;;;;1.46;88.13;100157.69;4935881;29;20038;-69
2022/01/05 04:17:29;;;;;;;9.38;2.35;;;;;;;1.50;88.38;100169.84;4928830;29;20035;-69
2022/01/05 04:19:54;;;;;;;11.70;2.47;;;;;;;1.43;88.45;100163.16;4929155;29;20024;-70
2022/01/05 04:22:19;;;;;;;12.48;2.65;;;;;;;1.33;88.05;100154.81;4911992;29;20027;-69
2022/01/05 04:24:45;;;;;;;13.00;1.80;;;;;;;1.28;89.32;100169.22;4930531;29;20043;-69
2022/01/05 04:27:10;;;;;;;10.45;2.50;;;;;;;1.43;89.26;100162.31;4931946;29;20042;-69
2022/01/05 04:29:35;;;;;;;13.55;2.55;;;;;;;1.28;89.53;100161.28;4912178;29;20035;-70
2022/01/05 04:32:01;;;;;;;11.32;2.55;;;;;;;1.15;89.48;100153.09;4918119;29;20580;-69
2022/01/05 04:34:26;;;;;;;10.93;2.40;;;;;;;1.25;89.62;100172.00;4932530;29;20822;-69
2022/01/05 04:36:52;;;;;;;8.40;2.25;;;;;;;1.26;89.68;100169.31;4934510;29;20162;-69
2022/01/05 04:39:17;;;;;;;13.57;2.63;;;;;;;1.27;89.68;100186.88;4927979;29;20118;-69
2022/01/05 04:41:42;;;;;;;12.48;2.22;;;;;;;1.15;90.98;100184.84;4931737;29;20027;-69
2022/01/05 04:44:08;;;;;;;12.27;2.53;;;;;;;1.31;90.10;100184.94;4917877;29;20080;-69
2022/01/05 04:46:33;;;;;;;12.82;2.72;;;;;;;1.46;88.94;100186.81;4934461;29;20552;-69
2022/01/05 04:48:58;;;;;;;15.18;2.53;;;;;;;1.32;90.13;100181.34;4927041;29;20035;-68
2022/01/05 04:51:24;;;;;;;15.00;4.22;;;;;;;1.24;89.82;100176.47;4914447;29;20031;-69
2022/01/05 04:53:51;;;;;;;13.27;3.25;;;;;;;1.38;89.23;100181.06;4911900;29;20118;-69
2022/01/05 04:56:16;;;;;;;8.02;2.75;;;;;;;1.39;89.53;100166.91;4927898;29;20034;-69
2022/01/05 04:58:41;;;;;;;21.58;3.55;;;;;;;1.53;89.23;100163.56;4910307;29;20032;-70
2022/01/05 05:01:07;;;;;;;18.25;3.47;;;;;;;1.54;89.72;100170.56;4909621;29;20079;-68
2022/01/05 05:03:32;;;;;;;9.95;2.40;;;;;;;1.57;89.48;100173.06;4928903;29;20500;-69
2022/01/05 05:05:57;;;;;;;6.30;1.95;;;;;;;1.48;90.82;100174.34;4927764;29;20035;-69
2022/01/05 05:08:22;;;;;;;12.00;2.55;;;;;;;1.54;90.40;100161.75;4905157;29;20055;-69
2022/01/05 05:10:48;;;;;;;15.85;3.10;;;;;;;1.49;90.56;100167.28;4909655;29;20046;-69
2022/01/05 05:13:13;;;;;;;13.00;2.90;;;;;;;1.38;90.58;100148.44;4893773;29;20429;-69
2022/01/05 05:15:39;;;;;;;13.75;3.25;;;;;;;1.45;90.69;100173.66;4895841;29;20047;-69
2022/01/05 05:18:05;;;;;;;17.27;3.30;;;;;;;1.38;90.89;100154.59;4893253;29;20078;-69
2022/01/05 05:20:32;;;;;;;19.90;3.72;;;;;;;1.53;90.93;100158.25;4891224;29;20436;-68
2022/01/05 05:22:57;;;;;;;14.85;3.30;;;;;;;1.34;91.76;100158.34;4893575;29;20034;-69
2022/01/05 05:25:23;;;;;;;14.13;3.08;;;;;;;1.40;91.70;100151.88;4911224;29;20036;-69
2022/01/05 05:27:48;;;;;;;14.13;2.88;;;;;;;1.55;90.97;100160.81;4909725;29;20055;-69
2022/01/05 05:30:13;;;;;;;9.57;2.33;;;;;;;1.53;91.54;100149.47;4910281;29;20028;-69
2022/01/05 05:32:39;;;;;;;12.93;2.25;;;;;;;1.57;91.40;100164.25;4908851;29;20064;-69
2022/01/05 05:35:05;;;;;;;18.02;3.13;;;;;;;1.42;91.73;100148.22;4908363;29;20118;-69
2022/01/05 05:37:30;;;;;;;18.85;3.78;;;;;;;1.52;91.47;100159.19;4890748;29;20126;-70
2022/01/05 05:39:56;;;;;;;19.88;3.13;;;;;;;1.42;91.96;100157.94;4907094;29;20553;-70
2022/01/05 05:42:21;;;;;;;14.55;2.70;;;;;;;1.43;92.52;100167.59;4927152;29;20364;-69
2022/01/05 05:44:46;;;;;;;16.02;3.03;;;;;;;1.43;92.63;100168.47;4927728;29;20372;-68
2022/01/05 05:47:11;;;;;;;19.98;3.40;;;;;;;1.43;92.71;100173.75;4923015;29;20046;-70
2022/01/05 05:49:37;;;;;;;18.73;2.90;;;;;;;1.34;93.15;100172.41;4927572;29;20031;-70
2022/01/05 05:52:02;;;;;;;10.93;2.70;;;;;;;1.23;93.41;100172.09;4923292;29;20119;-70
2022/01/05 05:54:28;;;;;;;8.60;2.35;;;;;;;1.28;93.44;100166.56;4906872;29;20034;-69
2022/01/05 05:56:53;;;;;;;14.15;2.83;;;;;;;1.31;93.55;100169.06;4906592;29;20844;-70
2022/01/05 05:59:18;;;;;;;14.93;2.88;;;;;;;1.34;93.35;100169.75;4926209;29;20038;-69
2022/01/05 06:01:44;;;;;;;18.73;3.03;;;;;;;1.42;93.43;100181.75;4927126;29;20042;-69
2022/01/05 06:04:09;;;;;;;17.75;3.45;;;;;;;1.38;93.67;100191.66;4929779;29;20118;-70
2022/01/05 06:06:34;;;;;;;12.50;2.42;;;;;;;1.35;94.14;100189.16;4907040;29;20056;-69
2022/01/05 06:09:00;;;;;;;11.63;2.53;;;;;;;1.19;94.49;100171.38;4900201;29;20119;-69
2022/01/05 06:11:25;;;;;;;13.80;2.33;;;;;;;1.38;94.13;100164.31;4928408;29;20215;-69
2022/01/05 06:13:52;;;;;;;19.73;2.75;;;;;;;1.46;94.30;100197.38;4923486;29;20035;-69
2022/01/05 06:16:17;;;;;;;8.77;2.70;;;;;;;1.46;94.49;100192.09;4905381;29;20508;-70
2022/01/05 06:18:43;;;;;;;14.63;2.78;;;;;;;1.55;94.03;100190.78;4922492;29;20035;-70
2022/01/05 06:21:08;;;;;;;18.52;3.20;;;;;;;1.49;93.98;100189.28;4891531;29;20389;-70
2022/01/05 06:23:33;;;;;;;16.50;3.50;;;;;;;1.74;93.75;100188.03;4904016;29;20051;-69
2022/01/05 06:25:59;;;;;;;14.65;3.00;;;;;;;1.76;94.15;100198.56;4905949;29;20034;-71
2022/01/05 06:28:24;;;;;;;24.38;4.40;;;;;;;1.88;93.08;100189.97;4921312;29;20062;-70
2022/01/05 06:30:49;;;;;;;13.10;2.58;;;;;;;1.98;93.19;100189.50;4905240;29;20123;-70
2022/01/05 06:33:15;;;;;;;18.42;3.05;;;;;;;2.09;92.67;100203.91;4905566;29;20051;-71
2022/01/05 06:35:40;;;;;;;16.25;2.22;;;;;;;2.08;92.55;100198.69;4905787;29;20083;-70
2022/01/05 06:38:06;;;;;;;12.75;3.35;;;;;;;2.10;93.31;100204.75;4907747;29;20032;-70
2022/01/05 06:40:31;;;;;;;16.70;3.45;;;;;;;2.14;92.68;100194.84;4920697;29;20079;-70
2022/01/05 06:42:58;;;;;;;16.70;3.40;;;;;;;1.85;93.45;100192.81;4907617;29;20123;-70
2022/01/05 06:45:23;;;;;;;12.23;2.88;;;;;;;1.89;93.78;100212.88;4902921;29;20083;-70
2022/01/05 06:47:49;;;;;;;18.30;3.63;;;;;;;2.01;92.75;100210.53;4910065;29;20039;-69
2022/01/05 06:50:14;;;;;;;13.43;2.72;;;;;;;1.87;94.22;100216.53;4918322;29;20031;-71
2022/01/05 06:52:40;;;;;;;20.73;3.22;;;;;;;2.00;94.17;100228.19;4900513;29;20488;-70
2022/01/05 06:55:06;;;;;;;19.33;3.67;;;;;;;1.98;93.42;100229.22;4907047;29;20780;-70
2022/01/05 06:57:31;;;;;;;19.85;3.55;;;;;;;2.03;93.84;100233.34;4896072;29;20118;-72
2022/01/05 06:59:57;;;;;;;18.40;3.88;;;;;;;2.05;93.59;100228.81;4905673;29;20041;-75
2022/01/05 07:02:22;;;;;;;18.73;4.00;;;;;;;2.17;93.34;100240.56;4904378;29;20429;-73
2022/01/05 07:04:47;;;;;;;17.02;3.38;;;;;;;2.06;93.50;100230.53;4906224;29;20062;-73
2022/01/05 07:07:13;;;;;;;13.75;2.92;;;;;;;2.08;94.63;100239.25;4900234;29;20050;-73
2022/01/05 07:09:38;;;;;;;21.30;4.35;;;;;;;2.20;93.78;100243.06;4919879;29;20051;-73
2022/01/05 07:12:04;;;;;;;27.00;5.03;;;;;;;2.28;93.74;100244.44;4924891;29;20039;-73
2022/01/05 07:14:29;;;;;;;21.73;4.18;;;;;;;2.07;94.63;100229.59;4906546;29;20069;-72
2022/01/05 07:16:54;;;;;;;21.35;5.03;;;;;;;2.20;94.30;100243.06;4912458;29;20047;-73
2022/01/05 07:19:20;;;;;;;22.63;5.25;;;;;;;2.23;94.06;100240.25;4910112;29;20042;-73
2022/01/05 07:21:46;;;;;;;20.52;4.05;;;;;;;2.46;93.14;100239.97;4903706;29;20103;-72
2022/01/05 07:24:16;;;;;;;22.35;4.07;;;;;;;2.48;93.50;100254.00;4922257;29;20103;-72
2022/01/05 07:26:41;;;;;;;15.60;3.15;;;;;;;2.49;92.61;100250.41;4923613;29;20027;-72
2022/01/05 07:29:06;;;;;;;13.95;2.88;;;;;;;2.59;92.49;100250.78;4918318;29;20377;-70
2022/01/05 07:31:32;;;;;;;19.58;2.90;;;;;;;2.58;93.71;100249.06;4903512;29;20515;-71
2022/01/05 07:33:57;;;;;;;12.18;2.95;;;;;;;2.62;92.96;100240.84;4886073;29;20035;-74
2022/01/05 07:36:22;;;;;;;8.70;2.35;;;;;;;2.74;92.81;100257.03;4903907;29;20031;-73
2022/01/05 07:38:47;;;;;;;14.63;2.95;;;;;;;2.80;92.75;100254.03;4922051;29;20463;-72
2022/01/05 07:41:13;;;;;;;14.98;3.58;;;;;;;2.77;93.16;100254.22;4922486;29;20066;-72
2022/01/05 07:43:38;;;;;;;18.30;3.88;;;;;;;2.99;91.76;100241.50;4921314;29;20028;-72
2022/01/05 07:46:03;;;;;;;11.40;2.70;;;;;;;2.97;91.84;100255.75;4909061;29;20035;-72
2022/01/05 07:48:29;;;;;;;18.13;3.35;;;;;;;2.94;91.48;100251.50;4908127;29;20496;-73
2022/01/05 07:50:54;;;;;;;15.82;3.42;;;;;;;2.97;91.39;100256.63;4910511;29;20039;-73
2022/01/05 07:53:20;;;;;;;16.60;3.78;;;;;;;3.17;90.17;100256.47;4895247;29;20064;-68
2022/01/05 07:55:45;;;;;;;12.57;3.10;;;;;;;3.25;89.87;100265.69;4908094;29;20031;-72
2022/01/05 07:58:11;;;;;;;15.05;2.92;;;;;;;3.29;89.98;100276.97;4891106;29;20031;-72
2022/01/05 08:00:36;;;;;;;14.90;2.65;;;;;;;3.31;90.20;100283.06;4909235;29;20484;-72
2022/01/05 08:03:02;;;;;;;21.67;3.88;;;;;;;3.28;88.75;100273.50;4894557;29;20035;-72
2022/01/05 08:05:27;;;;;;;20.65;4.20;;;;;;;3.30;88.70;100255.69;4903472;29;20417;-71
2022/01/05 08:07:52;;;;;;;17.17;3.53;;;;;;;3.46;89.58;100276.03;4904681;29;20506;-73
2022/01/05 08:10:17;;;;;;;14.02;3.08;;;;;;;3.37;89.06;100257.97;4894413;29;20023;-74
2022/01/05 08:12:43;;;;;;;9.43;3.05;;;;;;;3.40;89.36;100279.03;4888777;29;20083;-73
2022/01/05 08:15:11;;;;;;;12.60;2.90;;;;;;;3.58;88.56;100282.44;4907031;29;20106;-70
2022/01/05 08:17:38;;;;;;;18.40;3.53;;;;;;;3.50;88.53;100284.66;4921714;29;20044;-73
2022/01/05 08:20:04;;;;;;;7.97;1.95;;;;;;;3.45;89.23;100287.59;4907535;29;20162;-71
2022/01/05 08:22:29;;;;;;;8.20;1.83;;;;;;;3.51;89.17;100281.94;4923066;29;20030;-73
2022/01/05 08:24:55;;;;;;;22.75;3.63;;;;;;;3.56;88.48;100287.84;4904406;29;20464;-73
2022/01/05 08:27:20;;;;;;;20.75;3.17;;;;;;;3.64;88.68;100291.84;4907057;29;20036;-73
2022/01/05 08:29:45;;;;;;;14.93;4.03;;;;;;;3.64;87.84;100287.38;4925591;29;20121;-74
2022/01/05 08:32:10;;;;;;;17.23;3.42;;;;;;;3.60;88.83;100296.47;4925410;29;20118;-72
2022/01/05 08:34:36;;;;;;;10.27;1.95;;;;;;;3.56;88.71;100287.84;4920704;29;20092;-71
2022/01/05 08:37:01;;;;;;;17.40;3.38;;;;;;;3.59;87.82;100287.63;4922860;29;20456;-73
2022/01/05 08:39:26;;;;;;;7.88;2.22;;;;;;;3.57;88.62;100294.88;4920047;29;20448;-73
2022/01/05 08:41:52;;;;;;;8.65;2.78;;;;;;;3.70;88.52;100302.09;4905672;29;20095;-72
2022/01/05 08:44:17;;;;;;;17.08;3.33;;;;;;;3.70;87.83;100294.13;4893781;29;20036;-76
2022/01/05 08:46:43;;;;;;;12.75;2.58;;;;;;;3.70;87.88;100310.06;4903144;29;20054;-73
2022/01/05 08:49:10;;;;;;;13.57;2.30;;;;;;;3.71;88.60;100315.28;4897137;29;20476;-72
2022/01/05 08:51:36;;;;;;;15.88;3.95;;;;;;;3.73;88.02;100304.59;4891372;29;20039;-76
2022/01/05 08:54:02;;;;;;;5.75;1.67;;;;;;;3.78;87.99;100299.00;4886376;29;20079;-72
2022/01/05 08:56:27;;;;;;;15.15;2.17;;;;;;;3.67;89.10;100308.47;4905797;29;20023;-75
2022/01/05 08:58:54;;;;;;;13.52;3.17;;;;;;;3.78;89.83;100321.13;4904661;29;20385;-73
2022/01/05 09:01:19;;;;;;;11.77;3.03;;;;;;;3.74;91.43;100325.72;4907265;29;20163;-73
2022/01/05 09:03:44;;;;;;;18.92;3.33;;;;;;;3.61;91.60;100343.31;4906908;29;20573;-73
2022/01/05 09:06:10;;;;;;;18.60;3.58;;;;;;;3.59;92.41;100316.84;4906438;29;20104;-72
2022/01/05 09:08:37;;;;;;;11.23;2.47;;;;;;;3.53;94.13;100324.31;4904496;29;20055;-70
2022/01/05 09:11:02;;;;;;;20.45;4.45;;;;;;;3.44;94.88;100315.91;4891525;29;20353;-76
2022/01/05 09:13:28;;;;;;;12.00;2.50;;;;;;;3.45;96.58;100316.78;4907580;29;20028;-71
2022/01/05 09:15:53;;;;;;;14.02;3.03;;;;;;;3.47;97.07;100314.91;4922584;29;20028;-71
2022/01/05 09:18:19;;;;;;;17.13;3.70;;;;;;;3.45;96.90;100309.66;4907802;29;20087;-74
2022/01/05 09:20:45;;;;;;;17.02;3.55;;;;;;;3.50;96.21;100341.28;4907632;29;20047;-75
2022/01/05 09:23:10;;;;;;;4.65;1.60;;;;;;;3.59;97.23;100338.06;4924644;29;20039;-71
2022/01/05 09:25:35;;;;;;;12.45;2.78;;;;;;;3.50;98.54;100327.13;4906654;29;20040;-70
2022/01/05 09:28:02;;;;;;;21.92;3.67;;;;;;;3.48;98.08;100332.53;4904606;29;20038;-73
2022/01/05 09:30:28;;;;;;;20.63;2.85;;;;;;;3.62;97.78;100341.50;4907219;29;20062;-71
2022/01/05 09:32:53;;;;;;;9.52;2.03;;;;;;;3.58;98.42;100351.44;4904606;29;20056;-73
2022/01/05 09:35:22;;;;;;;8.27;2.20;;;;;;;3.41;100.00;100345.31;4922404;29;20028;-72
2022/01/05 09:38:36;;;;;;;20.85;3.50;;;;;;;3.58;100.00;100359.41;4905114;29;20465;-71
2022/01/05 09:43:21;;;;;;;11.68;2.88;;;;;;;3.50;100.00;100362.50;4908086;29;20090;-72
2022/01/05 09:45:53;;;;;;;9.77;1.95;;;;;;;3.40;100.00;100358.63;4903938;29;20039;-73
2022/01/05 09:48:46;;;;;;;18.27;3.95;;;;;;;3.53;100.00;100364.13;4902292;29;20115;-72
2022/01/05 09:51:13;;;;;;;16.80;3.40;;;;;;;3.48;100.00;100382.09;4923154;29;20503;-72
2022/01/05 09:53:39;;;;;;;9.25;2.22;;;;;;;3.39;100.00;100384.34;4895263;29;20028;-71
2022/01/05 09:56:05;;;;;;;6.60;2.22;;;;;;;3.30;100.00;100375.09;4907611;29;20472;-72
2022/01/05 09:58:31;;;;;;;10.25;3.05;;;;;;;3.37;100.00;100367.63;4921160;29;20055;-70
2022/01/05 10:00:57;;;;;;;10.25;2.08;;;;;;;3.38;100.00;100365.84;4921775;29;20131;-72
2022/01/05 10:03:22;;;;;;;8.30;1.80;;;;;;;3.41;100.00;100365.66;4918917;29;20035;-71
2022/01/05 10:05:48;;;;;;;12.13;2.13;;;;;;;3.47;100.00;100388.34;4921093;29;20082;-74
2022/01/05 10:08:13;;;;;;;9.90;2.10;;;;;;;3.58;100.00;100375.34;4908479;29;20623;-73
2022/01/05 10:10:40;;;;;;;7.25;1.73;;;;;;;3.52;100.00;100381.84;4923294;29;20081;-74
2022/01/05 10:13:06;;;;;;;10.55;3.45;;;;;;;3.60;100.00;100384.91;4906704;29;20035;-70
2022/01/05 10:15:31;;;;;;;15.60;2.60;;;;;;;3.58;100.00;100367.38;4918857;29;20026;-75
2022/01/05 10:18:14;;;;;;;28.08;4.97;;;;;;;3.58;100.00;100364.72;4928891;29;20453;-74
2022/01/05 10:21:02;;;;;;;15.02;2.90;;;;;;;3.56;100.00;100388.72;4920932;29;20031;-73
2022/01/05 10:23:45;;;;;;;18.88;4.22;;;;;;;3.76;100.00;100386.72;4912903;29;20042;-74
2022/01/05 10:26:26;;;;;;;19.58;4.38;;;;;;;3.68;100.00;100400.44;4904616;29;20054;-71
2022/01/05 10:29:00;;;;;;;21.58;3.55;;;;;;;3.73;100.00;100409.00;5093143;27;20052;-73
2022/01/05 10:31:52;;;;;;;24.05;3.63;;;;;;;3.75;100.00;100403.59;5062170;28;20035;-77
2022/01/05 10:34:22;;;;;;;7.18;1.52;;;;;;;3.75;100.00;100399.13;5076184;28;20063;-75
2022/01/05 10:36:49;;;;;;;17.83;4.10;;;;;;;3.77;100.00;100380.47;5074336;28;20032;-75
2022/01/05 10:39:16;;;;;;;23.60;5.00;;;;;;;3.99;100.00;100400.50;5064077;28;20075;-75
2022/01/05 10:41:43;;;;;;;8.88;2.25;;;;;;;3.99;100.00;100409.31;5091411;28;20244;-73
2022/01/05 10:44:20;;;;;;;12.32;3.45;;;;;;;3.85;100.00;100402.13;5080315;28;20115;-72
2022/01/05 10:46:52;;;;;;;12.52;2.83;;;;;;;3.93;100.00;100403.50;5091502;28;20415;-73
2022/01/05 10:49:33;;;;;;;13.10;3.03;;;;;;;3.93;100.00;100409.69;5079085;28;20040;-75
2022/01/05 10:52:19;;;;;;;16.13;3.08;;;;;;;4.08;100.00;100415.03;5094749;28;20032;-74
2022/01/05 10:54:44;;;;;;;15.18;2.75;;;;;;;4.11;100.00;100412.22;5095299;28;20032;-74
2022/01/05 10:57:12;;;;;;;16.83;2.45;;;;;;;4.14;100.00;100428.00;5076103;28;20043;-74
2022/01/05 10:59:42;;;;;;;10.45;1.95;;;;;;;4.13;100.00;100427.13;5078465;28;20339;-72
2022/01/05 11:02:23;;;;;;;11.73;1.90;;;;;;;4.07;100.00;100421.31;5076340;28;20028;-70
2022/01/05 11:05:09;;;;;;;9.70;2.03;;;;;;;4.21;100.00;100416.06;5077281;28;20028;-73
2022/01/05 11:07:39;;;;;;;10.00;1.95;;;;;;;4.27;99.81;100414.84;5102300;27;20426;-71
2022/01/05 11:10:07;;;;;;;11.80;3.50;;;;;;;4.22;100.00;100417.78;5076065;28;20115;-75
2022/01/05 11:12:33;;;;;;;11.40;2.83;;;;;;;4.26;100.00;100437.06;5070655;28;20410;-72
2022/01/05 11:15:19;;;;;;;10.73;3.05;;;;;;;4.18;100.00;100438.34;5075825;28;20060;-73
2022/01/05 11:18:11;;;;;;;11.98;2.78;;;;;;;4.41;100.00;100446.78;5076891;28;20117;-72
2022/01/05 11:20:44;;;;;;;10.65;3.17;;;;;;;4.68;99.36;100447.91;5093164;28;20028;-73
2022/01/05 11:23:10;;;;;;;14.05;2.45;;;;;;;4.90;99.43;100445.69;5077106;28;20103;-76
2022/01/05 11:25:37;;;;;;;13.88;2.28;;;;;;;5.13;96.95;100461.22;5091536;28;20032;-72
2022/01/05 11:28:04;;;;;;;18.80;3.20;;;;;;;5.03;97.62;100436.97;5076332;28;20064;-76
2022/01/05 11:30:29;;;;;;;21.63;2.17;;;;;;;4.84;98.91;100458.50;5073685;28;20309;-73